Time;durP1;ratioP1;P1;durP2;ratioP2;P2;SDS_P1;SDS_P2;PMS_P1;PMS_P2;Temp;Humidity;BMP_temperature;BMP_pressure;BME280_temperature;BME280_humidity;BME280_pressure;Samples;Min_cycle;Max_cycle;Signal;HPM_P1;HPM_P2
2021/04/09 00:00:35;;;;;;;9.73;4.55;;;;;;;0.66;56.89;97316.00;1727331;82;21258;-55
2021/04/09 00:03:02;;;;;;;7.08;4.65;;;;;;;0.61;57.11;97319.05;1708669;82;21128;-55
2021/04/09 00:05:32;;;;;;;8.80;4.28;;;;;;;0.60;57.11;97317.38;1726356;82;21063;-56
2021/04/09 00:08:01;;;;;;;7.03;4.03;;;;;;;0.61;57.27;97322.88;1714136;82;21562;-55
2021/04/09 00:10:30;;;;;;;6.08;4.33;;;;;;;0.61;57.24;97317.36;1733865;82;21178;-55
2021/04/09 00:12:58;;;;;;;8.08;4.12;;;;;;;0.59;57.32;97324.63;1733831;82;21334;-55
2021/04/09 00:15:25;;;;;;;6.25;4.78;;;;;;;0.55;57.33;97320.02;1733555;82;21666;-54
2021/04/09 00:17:55;;;;;;;9.45;4.67;;;;;;;0.55;57.31;97325.95;1733378;82;21094;-54
2021/04/09 00:20:24;;;;;;;8.15;4.70;;;;;;;0.58;57.39;97326.80;1717633;82;21055;-56
2021/04/09 00:22:52;;;;;;;8.53;4.80;;;;;;;0.54;57.42;97333.23;1727817;82;21095;-55
2021/04/09 00:25:21;;;;;;;5.87;3.98;;;;;;;0.51;57.60;97332.42;1719065;82;21221;-55
2021/04/09 00:27:49;;;;;;;6.97;4.12;;;;;;;0.45;57.86;97328.28;1733896;82;21137;-55
2021/04/09 00:30:24;;;;;;;7.97;4.90;;;;;;;0.35;57.90;97329.33;1715379;82;21205;-55
2021/04/09 00:32:52;;;;;;;9.90;4.70;;;;;;;0.27;58.13;97336.28;1689920;82;21178;-55
2021/04/09 00:35:21;;;;;;;8.20;4.50;;;;;;;0.23;58.37;97334.63;1727279;82;21122;-54
2021/04/09 00:37:50;;;;;;;7.83;3.92;;;;;;;0.23;58.53;97333.36;1705280;82;21466;-54
2021/04/09 00:40:19;;;;;;;6.03;4.08;;;;;;;0.23;58.61;97329.12;1686524;84;21163;-55
2021/04/09 00:42:46;;;;;;;4.95;3.67;;;;;;;0.24;58.55;97328.67;1676498;83;21596;-54
2021/04/09 00:45:14;;;;;;;6.45;3.90;;;;;;;0.27;58.50;97328.63;1704637;83;21464;-55
2021/04/09 00:47:43;;;;;;;6.00;4.30;;;;;;;0.29;58.42;97341.75;1715435;83;21079;-55
2021/04/09 00:50:13;;;;;;;8.40;4.10;;;;;;;0.33;58.44;97337.45;1726308;83;21535;-55
2021/04/09 00:52:43;;;;;;;5.25;3.70;;;;;;;0.39;58.19;97343.70;1699680;83;21110;-56
2021/04/09 00:55:14;;;;;;;6.12;4.45;;;;;;;0.42;58.10;97343.66;1691558;83;21499;-55
2021/04/09 00:57:42;;;;;;;9.83;4.87;;;;;;;0.45;57.93;97346.16;1700495;83;21088;-55
2021/04/09 01:00:12;;;;;;;7.62;4.97;;;;;;;0.52;57.95;97358.38;1701689;83;22356;-55
2021/04/09 01:02:40;;;;;;;10.60;6.03;;;;;;;0.63;57.75;97363.30;1700381;83;21226;-55
2021/04/09 01:05:13;;;;;;;16.12;7.33;;;;;;;0.72;57.64;97361.42;1726605;81;21148;-55
2021/04/09 01:07:42;;;;;;;12.37;7.58;;;;;;;0.83;57.10;97366.75;1730480;83;21075;-55
2021/04/09 01:10:12;;;;;;;15.32;7.72;;;;;;;0.85;57.05;97373.50;1728947;83;21146;-55
2021/04/09 01:12:40;;;;;;;13.53;7.95;;;;;;;0.93;57.12;97374.63;1730871;83;21130;-55
2021/04/09 01:15:14;;;;;;;14.83;8.03;;;;;;;1.03;56.98;97364.63;1717288;83;21359;-57
2021/04/09 01:18:13;;;;;;;17.75;9.68;;;;;;;1.18;56.32;97367.75;1718959;83;21487;-56
2021/04/09 01:21:02;;;;;;;13.98;7.92;;;;;;;1.24;55.97;97367.19;1666847;85;21127;-54
2021/04/09 01:23:44;;;;;;;9.18;6.00;;;;;;;1.25;55.74;97361.63;1670241;86;21631;-54
2021/04/09 01:26:29;;;;;;;10.38;6.00;;;;;;;1.14;55.87;97361.03;1700021;82;21078;-54
2021/04/09 01:29:26;;;;;;;6.25;4.03;;;;;;;1.05;56.16;97359.48;1712928;83;21377;-54
2021/04/09 01:32:04;;;;;;;4.45;3.75;;;;;;;0.94;56.46;97359.72;1730773;82;21106;-54
2021/04/09 01:34:41;;;;;;;6.97;3.60;;;;;;;0.83;56.55;97359.92;1728361;82;21221;-55
2021/04/09 01:37:13;;;;;;;6.05;3.62;;;;;;;0.73;56.90;97362.25;1730619;82;21200;-55
2021/04/09 01:39:44;;;;;;;6.80;3.60;;;;;;;0.66;57.15;97361.97;1708575;83;21630;-55
2021/04/09 01:42:12;;;;;;;3.58;2.98;;;;;;;0.65;57.13;97361.11;1701845;83;21208;-54
2021/04/09 01:44:43;;;;;;;4.03;3.62;;;;;;;0.66;57.23;97361.53;1697307;83;21205;-55
2021/04/09 01:47:10;;;;;;;5.53;3.60;;;;;;;0.66;57.28;97361.53;1701877;83;21078;-55
2021/04/09 01:49:39;;;;;;;4.60;3.45;;;;;;;0.65;57.36;97357.27;1726028;83;21130;-54
2021/04/09 01:52:09;;;;;;;5.42;3.30;;;;;;;0.69;57.29;97365.30;1726557;83;21609;-55
2021/04/09 01:54:39;;;;;;;8.48;3.20;;;;;;;0.73;57.21;97363.53;1715973;82;21178;-54
2021/04/09 01:57:09;;;;;;;4.72;3.12;;;;;;;0.84;57.10;97360.75;1690028;83;21137;-55
2021/04/09 01:59:39;;;;;;;5.35;3.65;;;;;;;0.95;56.75;97362.66;1710175;83;21217;-55
2021/04/09 02:02:07;;;;;;;6.35;3.87;;;;;;;0.96;56.63;97352.03;1689299;85;21231;-55
2021/04/09 02:04:34;;;;;;;5.28;3.20;;;;;;;0.97;56.50;97358.39;1730976;82;21053;-56
2021/04/09 02:07:03;;;;;;;6.12;3.58;;;;;;;0.93;56.51;97364.41;1674022;83;22822;-55
2021/04/09 02:09:31;;;;;;;6.30;3.83;;;;;;;0.88;56.58;97364.95;1719711;83;21089;-55
2021/04/09 02:11:59;;;;;;;5.62;3.40;;;;;;;0.82;56.77;97369.75;1728874;83;21125;-55
2021/04/09 02:14:27;;;;;;;4.40;3.35;;;;;;;0.76;56.75;97369.86;1711867;83;21248;-56
2021/04/09 02:16:54;;;;;;;3.62;3.08;;;;;;;0.73;56.94;97380.13;1723952;82;21212;-55
2021/04/09 02:19:24;;;;;;;4.17;2.92;;;;;;;0.69;57.09;97387.43;1711408;83;21222;-56
2021/04/09 02:21:51;;;;;;;4.97;3.17;;;;;;;0.66;57.18;97384.95;1718003;83;21101;-55
2021/04/09 02:24:19;;;;;;;4.97;3.33;;;;;;;0.64;57.27;97385.40;1730726;83;21122;-55
2021/04/09 02:26:48;;;;;;;5.22;3.10;;;;;;;0.64;57.21;97386.67;1718285;83;21603;-55
2021/04/09 02:29:17;;;;;;;4.15;3.15;;;;;;;0.64;57.18;97386.67;1729156;83;25491;-55
2021/04/09 02:31:44;;;;;;;4.67;3.05;;;;;;;0.62;57.22;97394.36;1703536;83;22676;-55
2021/04/09 02:34:12;;;;;;;3.50;3.17;;;;;;;0.60;57.28;97398.66;1721554;83;21567;-57
2021/04/09 02:36:42;;;;;;;5.47;3.40;;;;;;;0.57;57.26;97403.82;1692273;83;21572;-56
2021/04/09 02:39:13;;;;;;;3.95;2.90;;;;;;;0.52;57.29;97404.34;1726212;82;21179;-55
2021/04/09 02:41:43;;;;;;;3.80;3.25;;;;;;;0.47;57.43;97408.25;1722654;82;21183;-55
2021/04/09 02:44:10;;;;;;;4.62;3.40;;;;;;;0.43;57.53;97407.91;1720286;82;23310;-54
2021/04/09 02:47:06;;;;;;;5.60;3.52;;;;;;;0.41;57.57;97410.06;1701902;83;21161;-55
2021/04/09 02:49:50;;;;;;;4.30;3.50;;;;;;;0.42;57.57;97412.59;1693810;83;21139;-56
2021/04/09 02:52:25;;;;;;;5.28;3.10;;;;;;;0.40;57.58;97414.34;1691156;83;21180;-56
2021/04/09 02:54:54;;;;;;;4.65;3.80;;;;;;;0.38;57.69;97426.29;1715436;82;21508;-56
2021/04/09 02:57:26;;;;;;;4.22;3.25;;;;;;;0.36;57.73;97427.59;1728459;82;22185;-56
2021/04/09 02:59:56;;;;;;;7.92;3.60;;;;;;;0.40;57.59;97424.99;1741187;81;21576;-56
2021/04/09 03:02:24;;;;;;;5.25;3.83;;;;;;;0.43;57.61;97428.33;1741351;81;21473;-56
2021/04/09 03:04:52;;;;;;;4.03;3.25;;;;;;;0.54;57.53;97435.80;1754876;81;21113;-56
2021/04/09 03:07:20;;;;;;;5.40;3.50;;;;;;;0.62;57.21;97436.50;1723472;82;21162;-56
2021/04/09 03:09:48;;;;;;;3.80;3.15;;;;;;;0.65;57.23;97440.28;1715177;83;21278;-56
2021/04/09 03:12:19;;;;;;;4.53;3.03;;;;;;;0.75;56.93;97438.41;1697629;84;21089;-57
2021/04/09 03:14:49;;;;;;;4.67;3.30;;;;;;;0.84;56.72;97434.43;1727427;83;21516;-56
2021/04/09 03:17:28;;;;;;;4.42;3.20;;;;;;;0.83;56.53;97437.84;1697438;83;21155;-56
2021/04/09 03:19:55;;;;;;;5.60;3.20;;;;;;;0.84;56.56;97442.09;1732075;81;21140;-56
2021/04/09 03:22:23;;;;;;;3.47;3.02;;;;;;;0.79;56.73;97449.00;1726270;83;21348;-56
2021/04/09 03:24:51;;;;;;;4.60;3.30;;;;;;;0.76;56.72;97445.63;1700161;83;21569;-56
2021/04/09 03:27:19;;;;;;;3.90;3.00;;;;;;;0.69;57.01;97446.18;1744174;81;21560;-56
2021/04/09 03:29:46;;;;;;;3.22;2.92;;;;;;;0.66;57.00;97447.09;1726503;82;21664;-57
2021/04/09 03:32:14;;;;;;;4.58;3.55;;;;;;;0.68;57.21;97447.06;1726234;83;21496;-56
2021/04/09 03:34:43;;;;;;;6.15;3.30;;;;;;;0.67;57.21;97451.75;1707057;82;21206;-56
2021/04/09 03:37:10;;;;;;;6.72;3.02;;;;;;;0.70;57.13;97458.09;1742787;81;21123;-56
2021/04/09 03:39:38;;;;;;;3.10;2.80;;;;;;;0.70;57.10;97458.09;1700713;83;21180;-56
2021/04/09 03:42:10;;;;;;;4.80;3.12;;;;;;;0.65;57.32;97459.44;1739970;81;21132;-57
2021/04/09 03:44:38;;;;;;;4.95;3.40;;;;;;;0.62;57.38;97465.05;1717224;82;21165;-56
2021/04/09 03:47:07;;;;;;;4.47;3.12;;;;;;;0.62;57.53;97465.05;1723535;82;22738;-56
2021/04/09 03:49:36;;;;;;;5.95;3.42;;;;;;;0.65;57.47;97460.72;1740468;81;21181;-56
2021/04/09 03:52:05;;;;;;;7.50;3.70;;;;;;;0.68;57.21;97464.95;1708766;83;21588;-55
2021/04/09 03:54:33;;;;;;;6.33;3.40;;;;;;;0.70;57.09;97464.03;1748723;81;21481;-55
2021/04/09 03:57:03;;;;;;;4.37;3.22;;;;;;;0.67;56.94;97469.19;1720099;83;21097;-54
2021/04/09 03:59:31;;;;;;;5.75;3.45;;;;;;;0.63;57.08;97465.02;1717526;83;21366;-54
2021/04/09 04:01:59;;;;;;;4.28;3.70;;;;;;;0.67;57.12;97467.91;1730851;82;21209;-55
2021/04/09 04:04:27;;;;;;;12.47;6.53;;;;;;;0.78;57.24;97465.19;1726507;82;21137;-55
2021/04/09 04:06:55;;;;;;;5.97;3.90;;;;;;;0.85;56.68;97465.92;1729020;82;21191;-55
2021/04/09 04:09:26;;;;;;;5.17;3.30;;;;;;;0.80;56.47;97474.94;1711724;82;21134;-55
2021/04/09 04:11:55;;;;;;;7.67;3.40;;;;;;;0.82;56.43;97475.78;1714590;82;23350;-56
2021/04/09 04:14:24;;;;;;;8.63;3.47;;;;;;;0.81;56.29;97471.52;1706628;82;21201;-56
2021/04/09 04:16:51;;;;;;;4.33;3.60;;;;;;;0.77;56.39;97477.98;1739609;81;21086;-55
2021/04/09 04:19:20;;;;;;;5.10;3.60;;;;;;;0.73;56.49;97481.87;1742295;81;21177;-55
2021/04/09 04:21:50;;;;;;;6.28;3.55;;;;;;;0.70;56.48;97478.53;1706999;82;21138;-54
2021/04/09 04:24:19;;;;;;;7.00;3.80;;;;;;;0.65;56.58;97479.88;1718806;82;21580;-55
2021/04/09 04:26:47;;;;;;;;;;;;;;;0.65;56.67;97481.59;1707930;83;21189;-55
2021/04/09 04:29:14;;;;;;;4.72;3.40;;;;;;;0.63;56.69;97484.63;1747864;81;20239;-55
2021/04/09 04:31:43;;;;;;;4.12;3.52;;;;;;;0.77;56.59;97485.20;1713249;83;21088;-56
2021/04/09 04:34:11;;;;;;;7.10;4.03;;;;;;;1.28;55.73;97484.30;1724872;82;21154;-55
2021/04/09 04:36:40;;;;;;;53.75;25.30;;;;;;;1.91;54.27;97488.15;1731306;82;21392;-55
2021/04/09 04:39:08;;;;;;;47.38;27.25;;;;;;;2.60;52.94;97491.27;1751327;81;21161;-55
2021/04/09 04:41:37;;;;;;;9.38;5.30;;;;;;;3.15;50.82;97483.92;1741170;81;21193;-57
2021/04/09 04:44:07;;;;;;;8.50;4.60;;;;;;;3.47;50.02;97494.16;1738994;81;21503;-56
2021/04/09 04:46:38;;;;;;;7.45;3.98;;;;;;;3.95;48.40;97489.39;1732096;81;21582;-56
2021/04/09 04:49:06;;;;;;;;;;;;;;;4.42;47.09;97491.80;1746254;81;22287;-56
2021/04/09 04:51:35;;;;;;;;;;;;;;;4.89;46.02;97488.56;1741435;81;20222;-56
2021/04/09 04:54:05;;;;;;;7.70;4.12;;;;;;;5.37;45.18;97487.39;1730584;81;20213;-55
2021/04/09 04:56:33;;;;;;;9.98;4.22;;;;;;;5.84;43.98;97490.81;1724971;83;21124;-55
2021/04/09 04:59:01;;;;;;;9.33;3.65;;;;;;;6.23;43.21;97490.67;1714591;83;21071;-57
2021/04/09 05:01:29;;;;;;;8.18;3.60;;;;;;;6.72;42.06;97490.47;1710516;83;21393;-56
2021/04/09 05:03:57;;;;;;;11.70;3.65;;;;;;;7.12;40.83;97479.78;1708312;83;21221;-57
2021/04/09 05:06:24;;;;;;;14.18;3.20;;;;;;;7.39;40.68;97488.56;1708390;83;21520;-56
2021/04/09 05:08:54;;;;;;;12.05;3.45;;;;;;;7.74;39.77;97487.81;1727917;82;21153;-56
2021/04/09 05:11:22;;;;;;;8.33;3.22;;;;;;;8.26;38.94;97492.83;1741709;82;21085;-58
2021/04/09 05:13:50;;;;;;;7.55;3.10;;;;;;;8.72;37.69;97485.48;1728725;83;21213;-56
2021/04/09 05:16:19;;;;;;;4.55;2.90;;;;;;;8.91;37.32;97492.34;1717774;83;21290;-56
2021/04/09 05:18:47;;;;;;;8.00;3.42;;;;;;;9.36;36.77;97485.30;1723369;81;21142;-56
2021/04/09 05:21:15;;;;;;;13.68;3.35;;;;;;;9.88;34.95;97494.68;1722919;83;21070;-56
2021/04/09 05:23:43;;;;;;;8.40;3.40;;;;;;;10.13;35.01;97491.63;1703409;82;21619;-57
2021/04/09 05:26:11;;;;;;;10.28;3.20;;;;;;;10.54;34.20;97492.05;1713355;83;21377;-56
2021/04/09 05:28:39;;;;;;;8.13;3.42;;;;;;;11.01;33.50;97493.70;1725473;82;21198;-56
2021/04/09 05:31:08;;;;;;;4.08;3.08;;;;;;;11.33;31.83;97490.53;1702123;83;21567;-56
2021/04/09 05:33:36;;;;;;;5.60;3.42;;;;;;;11.35;32.27;97496.94;1702227;83;21434;-57
2021/04/09 05:36:06;;;;;;;7.37;3.55;;;;;;;11.44;31.62;97501.56;1718787;83;21199;-58
2021/04/09 05:38:34;;;;;;;8.53;3.60;;;;;;;11.26;31.65;97504.78;1713892;83;21212;-58
2021/04/09 05:41:02;;;;;;;4.87;3.40;;;;;;;11.14;31.90;97504.22;1699912;83;21132;-57
2021/04/09 05:43:30;;;;;;;9.30;3.77;;;;;;;11.26;31.06;97499.59;1714593;83;21134;-57
2021/04/09 05:45:58;;;;;;;9.98;3.80;;;;;;;11.13;32.00;97510.33;1686123;83;21138;-57
2021/04/09 05:48:25;;;;;;;6.10;3.50;;;;;;;11.53;31.49;97507.52;1719784;83;21104;-57
2021/04/09 05:50:54;;;;;;;5.83;3.10;;;;;;;12.03;30.66;97509.30;1699827;83;21359;-56
2021/04/09 05:53:21;;;;;;;8.73;3.83;;;;;;;12.16;29.40;97505.48;1708922;83;21095;-54
2021/04/09 05:55:50;;;;;;;9.73;3.52;;;;;;;11.89;29.99;97515.33;1704160;82;21147;-54
2021/04/09 05:58:19;;;;;;;8.70;3.55;;;;;;;12.04;30.21;97508.38;1716445;83;21126;-54
2021/04/09 06:00:47;;;;;;;4.80;3.60;;;;;;;12.15;29.61;97516.36;1701903;83;21186;-54
2021/04/09 06:03:15;;;;;;;7.87;3.42;;;;;;;12.21;30.04;97515.61;1708509;83;21209;-54
2021/04/09 06:05:43;;;;;;;6.97;3.67;;;;;;;12.48;29.11;97517.78;1728133;83;21087;-54
2021/04/09 06:08:12;;;;;;;7.15;3.50;;;;;;;12.67;29.13;97520.50;1721178;83;21135;-60
2021/04/09 06:10:40;;;;;;;;;;;;;;;13.10;28.74;97518.17;1713490;83;21126;-55
2021/04/09 06:13:07;;;;;;;7.42;3.77;;;;;;;13.43;27.64;97509.42;1725426;82;20241;-60
2021/04/09 06:15:35;;;;;;;5.78;3.08;;;;;;;13.59;27.41;97511.84;1711442;83;22173;-59
2021/04/09 06:18:05;;;;;;;5.58;2.62;;;;;;;13.79;26.58;97509.16;1708564;82;21572;-59
2021/04/09 06:20:33;;;;;;;7.05;2.80;;;;;;;13.57;26.12;97500.69;1720430;81;21083;-59
2021/04/09 06:23:01;;;;;;;6.77;2.93;;;;;;;13.27;26.57;97508.75;1722597;83;21097;-60
2021/04/09 06:25:30;;;;;;;4.28;2.87;;;;;;;13.36;26.97;97510.78;1728088;82;21139;-59
2021/04/09 06:27:57;;;;;;;6.72;5.05;;;;;;;13.48;26.53;97509.13;1727523;83;21664;-60
2021/04/09 06:30:26;;;;;;;5.55;3.77;;;;;;;13.28;26.58;97510.91;1724616;82;21224;-59
2021/04/09 06:32:54;;;;;;;4.40;2.80;;;;;;;13.47;26.55;97511.38;1728155;83;21484;-59
2021/04/09 06:35:22;;;;;;;5.50;3.12;;;;;;;13.80;25.87;97513.93;1728317;83;21047;-59
2021/04/09 06:37:51;;;;;;;4.00;2.87;;;;;;;13.88;25.70;97512.08;1721768;83;21112;-59
2021/04/09 06:40:21;;;;;;;3.10;2.62;;;;;;;13.58;25.77;97513.23;1717962;83;22207;-59
2021/04/09 06:42:56;;;;;;;3.15;2.30;;;;;;;14.11;25.86;97510.47;1719832;82;21129;-60
2021/04/09 06:45:24;;;;;;;3.62;2.10;;;;;;;15.07;24.58;97508.41;1718864;83;21053;-59
2021/04/09 06:47:53;;;;;;;3.30;2.75;;;;;;;15.96;23.58;97510.82;1718866;83;21521;-60
2021/04/09 06:50:23;;;;;;;3.15;2.60;;;;;;;17.02;22.66;97509.43;1718891;83;21072;-60
2021/04/09 06:52:53;;;;;;;5.45;2.60;;;;;;;17.77;21.07;97508.84;1719019;83;21939;-60
2021/04/09 06:55:23;;;;;;;2.45;2.25;;;;;;;17.65;21.18;97509.91;1693809;83;21128;-60
2021/04/09 06:58:02;;;;;;;4.33;3.20;;;;;;;17.65;20.82;97513.34;1819271;77;22757;-61
2021/04/09 07:00:33;;;;;;;3.23;2.50;;;;;;;17.15;20.54;97513.65;1791539;80;21081;-60
2021/04/09 07:03:01;;;;;;;2.85;2.55;;;;;;;16.51;20.98;97512.65;1791495;78;21896;-60
2021/04/09 07:05:29;;;;;;;3.35;2.70;;;;;;;16.04;21.73;97515.47;1791458;80;21090;-60
2021/04/09 07:08:00;;;;;;;3.12;2.50;;;;;;;16.42;21.67;97514.71;1791512;80;20972;-60
2021/04/09 07:10:28;;;;;;;4.37;2.70;;;;;;;16.86;21.42;97516.89;1791454;79;21518;-60
2021/04/09 07:13:05;;;;;;;4.50;2.62;;;;;;;17.47;21.44;97517.53;1775726;80;26169;-60
2021/04/09 07:15:44;;;;;;;3.55;2.27;;;;;;;18.20;19.48;97513.53;1791352;80;22860;-60
2021/04/09 07:18:16;;;;;;;3.20;2.72;;;;;;;17.99;19.49;97510.97;1768164;78;21483;-60
2021/04/09 07:20:44;;;;;;;5.25;2.37;;;;;;;16.87;20.14;97517.22;1774124;80;21602;-61
2021/04/09 07:23:13;;;;;;;2.97;2.13;;;;;;;16.66;20.86;97519.75;1736069;82;21094;-60
2021/04/09 07:25:45;;;;;;;2.30;1.98;;;;;;;16.26;20.62;97515.09;1735994;82;21783;-60
2021/04/09 07:28:20;;;;;;;3.45;2.25;;;;;;;15.61;21.93;97505.19;1735863;82;21363;-60
2021/04/09 07:30:53;;;;;;;3.77;2.65;;;;;;;15.33;22.02;97514.30;1735800;82;21169;-61
2021/04/09 07:33:22;;;;;;;6.90;2.37;;;;;;;15.79;22.19;97515.23;1743579;81;21093;-61
2021/04/09 07:35:57;;;;;;;8.58;2.47;;;;;;;16.01;21.23;97525.69;1766262;81;21076;-61
2021/04/09 07:38:33;;;;;;;3.60;2.40;;;;;;;16.12;22.03;97518.80;1765419;81;21143;-60
2021/04/09 07:41:03;;;;;;;4.20;2.50;;;;;;;17.04;20.35;97517.99;1766326;81;22286;-60
2021/04/09 07:43:39;;;;;;;5.30;2.52;;;;;;;17.21;20.44;97511.34;1709367;82;21104;-60
2021/04/09 07:46:08;;;;;;;3.55;2.40;;;;;;;17.58;20.49;97511.36;1725886;83;21160;-59
2021/04/09 07:48:38;;;;;;;1.82;1.72;;;;;;;18.21;19.02;97510.78;1746540;81;21587;-60
2021/04/09 07:51:08;;;;;;;3.55;2.20;;;;;;;17.91;18.49;97510.80;1766254;81;21092;-59
2021/04/09 07:53:41;;;;;;;4.40;2.30;;;;;;;17.64;19.01;97511.67;1766524;81;21215;-61
2021/04/09 07:56:14;;;;;;;2.05;1.82;;;;;;;17.72;19.64;97510.21;1763754;81;21089;-60
2021/04/09 07:58:45;;;;;;;2.70;2.17;;;;;;;18.10;18.81;97506.94;1743204;82;21201;-60
2021/04/09 08:01:25;;;;;;;3.75;2.08;;;;;;;18.34;18.59;97507.09;1743839;82;21502;-60
2021/04/09 08:03:57;;;;;;;2.95;2.35;;;;;;;18.52;19.23;97515.13;1735362;82;21181;-60
2021/04/09 08:06:29;;;;;;;2.77;2.40;;;;;;;19.11;19.37;97513.40;1726513;82;21202;-61
2021/04/09 08:08:58;;;;;;;2.30;2.10;;;;;;;20.09;18.69;97507.44;1725263;82;21174;-60
2021/04/09 08:11:35;;;;;;;4.87;2.47;;;;;;;20.88;16.71;97502.55;1739044;82;21585;-60
2021/04/09 08:14:07;;;;;;;12.40;2.30;;;;;;;20.87;17.19;97500.89;1739096;82;21189;-59
2021/04/09 08:16:46;;;;;;;2.30;2.08;;;;;;;20.92;16.77;97510.49;1738312;81;21157;-62
2021/04/09 08:19:21;;;;;;;4.03;2.33;;;;;;;20.71;15.93;97509.49;1730298;81;21213;-60
2021/04/09 08:21:57;;;;;;;2.62;2.42;;;;;;;20.54;16.35;97501.85;1761092;81;21093;-59
2021/04/09 08:24:30;;;;;;;3.02;2.60;;;;;;;20.78;16.73;97497.35;1761345;81;21128;-60
2021/04/09 08:26:59;;;;;;;4.08;3.67;;;;;;;21.12;17.13;97495.35;1761298;81;21089;-59
2021/04/09 08:29:30;;;;;;;2.80;2.60;;;;;;;21.81;16.48;97492.38;1719998;79;21093;-60
2021/04/09 08:32:02;;;;;;;2.80;2.10;;;;;;;22.38;16.43;97487.82;1694308;84;22246;-58
2021/04/09 08:34:29;;;;;;;4.40;2.90;;;;;;;23.03;15.74;97485.47;1711018;81;21114;-59
2021/04/09 08:36:59;;;;;;;2.60;2.40;;;;;;;23.35;15.20;97479.34;1761034;80;21128;-60
2021/04/09 08:39:31;;;;;;;4.67;3.22;;;;;;;23.60;15.58;97479.30;1760942;81;21085;-59
2021/04/09 08:41:59;;;;;;;4.75;2.92;;;;;;;24.06;15.13;97482.17;1761093;80;21081;-60
2021/04/09 08:44:27;;;;;;;2.72;2.42;;;;;;;24.15;14.15;97476.36;1761288;81;26927;-60
2021/04/09 08:46:54;;;;;;;3.08;2.35;;;;;;;22.70;14.17;97480.97;1787073;79;21554;-59
2021/04/09 08:49:23;;;;;;;2.47;2.27;;;;;;;21.29;15.73;97474.68;1775151;80;26163;-58
2021/04/09 08:51:51;;;;;;;2.50;2.23;;;;;;;21.14;16.67;97475.73;1760554;80;21070;-59
2021/04/09 08:54:28;;;;;;;4.75;2.70;;;;;;;21.44;16.52;97477.59;1782173;79;21049;-60
2021/04/09 08:56:54;;;;;;;2.92;2.62;;;;;;;21.90;16.56;97470.77;1784681;79;21196;-58
2021/04/09 08:59:42;;;;;;;3.62;2.92;;;;;;;22.58;16.26;97470.35;1759525;81;21082;-59
2021/04/09 09:02:19;;;;;;;2.92;2.60;;;;;;;23.19;16.01;97470.09;1797778;79;21470;-58
2021/04/09 09:05:03;;;;;;;4.00;2.50;;;;;;;23.89;14.95;97472.14;1738325;81;21128;-59
2021/04/09 09:07:52;;;;;;;4.08;2.67;;;;;;;23.77;14.66;97459.73;1797894;79;21050;-59
2021/04/09 09:10:38;;;;;;;4.30;2.80;;;;;;;23.37;14.78;97457.48;1759453;81;21433;-60
2021/04/09 09:13:14;;;;;;;2.75;2.50;;;;;;;22.47;14.84;97450.35;1780198;78;21142;-59
2021/04/09 09:15:49;;;;;;;3.40;2.72;;;;;;;20.77;15.97;97467.52;1766172;81;21188;-59
2021/04/09 09:18:31;;;;;;;2.40;2.20;;;;;;;19.86;17.98;97459.58;1766292;79;21111;-59
2021/04/09 09:21:19;;;;;;;2.87;2.30;;;;;;;20.09;17.72;97464.47;1766101;80;21068;-59
2021/04/09 09:23:53;;;;;;;3.20;2.50;;;;;;;20.23;18.01;97456.08;1766335;81;21477;-59
2021/04/09 09:26:43;;;;;;;2.87;2.60;;;;;;;20.77;17.65;97456.13;1766130;81;21091;-59
2021/04/09 09:29:28;;;;;;;7.47;3.22;;;;;;;21.38;16.92;97453.15;1766299;81;21508;-59
2021/04/09 09:32:04;;;;;;;3.52;2.85;;;;;;;21.21;16.63;97453.52;1787799;79;21058;-59
2021/04/09 09:34:44;;;;;;;2.77;2.47;;;;;;;20.55;17.07;97448.16;1758392;81;21515;-59
2021/04/09 09:37:29;;;;;;;3.50;1.95;;;;;;;20.49;17.68;97446.11;1776459;79;21257;-59
2021/04/09 09:40:02;;;;;;;3.58;2.00;;;;;;;20.58;16.68;97446.05;1739630;81;21573;-59
2021/04/09 09:42:34;;;;;;;3.52;2.30;;;;;;;20.07;17.42;97444.05;1797431;79;21061;-59
2021/04/09 09:45:15;;;;;;;2.77;2.20;;;;;;;19.87;17.93;97441.50;1797694;79;21074;-59
2021/04/09 09:47:46;;;;;;;2.30;2.10;;;;;;;20.00;18.17;97434.55;1794488;79;21479;-59
2021/04/09 09:50:26;;;;;;;2.80;2.47;;;;;;;20.09;18.29;97438.95;1756753;81;21364;-59
2021/04/09 09:53:04;;;;;;;2.62;2.33;;;;;;;19.96;17.91;97422.17;1714731;82;21196;-59
2021/04/09 09:55:40;;;;;;;3.10;2.17;;;;;;;19.68;18.00;97428.70;1698561;84;21627;-59
2021/04/09 09:58:25;;;;;;;3.60;2.70;;;;;;;19.48;17.86;97424.02;1766188;80;21049;-58
2021/04/09 10:01:00;;;;;;;6.37;3.02;;;;;;;19.34;18.59;97418.38;1766221;81;21485;-58
2021/04/09 10:03:33;;;;;;;2.55;2.35;;;;;;;19.42;18.45;97416.69;1762980;79;21535;-59
2021/04/09 10:06:12;;;;;;;2.58;2.37;;;;;;;19.64;18.20;97418.14;1754879;81;21075;-59
2021/04/09 10:08:43;;;;;;;3.90;2.90;;;;;;;19.87;18.19;97415.17;1751869;81;21098;-58
2021/04/09 10:11:19;;;;;;;3.02;2.77;;;;;;;19.56;18.07;97418.04;1754969;81;21063;-58
2021/04/09 10:13:49;;;;;;;3.40;2.67;;;;;;;18.61;17.78;97413.62;1755217;78;21566;-58
2021/04/09 10:16:22;;;;;;;3.55;2.45;;;;;;;17.77;19.15;97410.41;1777151;79;21073;-60
2021/04/09 10:18:56;;;;;;;4.85;2.77;;;;;;;17.41;19.07;97410.48;1745771;81;21084;-60
2021/04/09 10:21:30;;;;;;;8.53;2.80;;;;;;;17.37;19.28;97405.98;1709186;83;21170;-58
2021/04/09 10:24:15;;;;;;;3.50;3.05;;;;;;;17.33;19.62;97402.44;1766370;79;21064;-59
2021/04/09 10:27:01;;;;;;;4.47;3.00;;;;;;;16.90;19.48;97397.22;1766270;80;21063;-59
2021/04/09 10:29:34;;;;;;;3.80;2.70;;;;;;;15.84;21.36;97400.57;1766144;81;21195;-58
2021/04/09 10:32:05;;;;;;;3.87;2.85;;;;;;;15.51;21.41;97402.23;1782581;79;21082;-58
2021/04/09 10:34:34;;;;;;;4.45;2.70;;;;;;;15.54;20.92;97395.46;1736100;81;21468;-58
2021/04/09 10:37:06;;;;;;;5.05;2.65;;;;;;;15.55;20.95;97387.95;1709067;84;21135;-58
2021/04/09 10:39:38;;;;;;;6.20;2.85;;;;;;;15.20;21.01;97390.21;1709152;83;21174;-58
2021/04/09 10:42:07;;;;;;;5.05;3.05;;;;;;;14.66;22.13;97393.44;1766238;80;22125;-58
2021/04/09 10:44:35;;;;;;;8.63;3.20;;;;;;;14.40;21.94;97389.62;1745014;81;21248;-59
2021/04/09 10:47:05;;;;;;;7.50;3.40;;;;;;;14.69;21.70;97377.53;1766191;80;21168;-60
2021/04/09 10:49:41;;;;;;;6.05;3.10;;;;;;;14.94;21.69;97375.69;1788229;79;21177;-60
2021/04/09 10:52:15;;;;;;;4.35;2.55;;;;;;;15.36;22.09;97376.80;1759650;81;21047;-60
2021/04/09 10:54:45;;;;;;;3.65;2.50;;;;;;;15.74;21.73;97379.95;1738502;82;21181;-58
2021/04/09 10:57:18;;;;;;;3.65;2.30;;;;;;;15.56;20.33;97371.31;1782241;79;21335;-58
2021/04/09 10:59:50;;;;;;;7.87;3.85;;;;;;;15.37;20.02;97365.85;1761003;81;21100;-59
2021/04/09 11:02:24;;;;;;;4.75;2.70;;;;;;;15.09;20.61;97363.58;1760980;81;21075;-60
2021/04/09 11:04:58;;;;;;;3.52;2.60;;;;;;;14.89;21.49;97362.48;1761485;80;21467;-58
2021/04/09 11:07:45;;;;;;;6.05;2.60;;;;;;;14.70;21.73;97368.28;1760986;80;21126;-58
2021/04/09 11:10:18;;;;;;;5.58;2.60;;;;;;;14.70;21.45;97371.34;1757212;80;21193;-59
2021/04/09 11:12:47;;;;;;;4.45;2.75;;;;;;;14.31;22.12;97358.98;1753606;81;21161;-59
2021/04/09 11:15:16;;;;;;;2.80;2.10;;;;;;;14.23;21.24;97352.19;1754307;81;21135;-59
2021/04/09 11:18:01;;;;;;;5.62;3.60;;;;;;;14.04;21.71;97345.67;1733475;79;21149;-60
2021/04/09 11:20:32;;;;;;;7.62;3.00;;;;;;;13.76;22.26;97350.75;1760953;80;21362;-58
2021/04/09 11:23:05;;;;;;;6.47;2.92;;;;;;;13.48;22.25;97347.48;1760941;81;21110;-58
2021/04/09 11:25:38;;;;;;;6.30;2.87;;;;;;;13.34;23.36;97344.55;1760987;80;21474;-58
2021/04/09 11:28:08;;;;;;;5.05;2.37;;;;;;;13.39;22.43;97342.45;1761387;80;21549;-58
2021/04/09 11:30:37;;;;;;;4.47;3.05;;;;;;;13.39;22.93;97347.66;1760974;80;21074;-58
2021/04/09 11:33:07;;;;;;;4.50;2.77;;;;;;;13.56;22.48;97334.73;1761130;80;21191;-58
2021/04/09 11:35:38;;;;;;;5.35;3.20;;;;;;;13.54;22.65;97334.02;1761159;80;21136;-59
2021/04/09 11:38:14;;;;;;;6.15;3.02;;;;;;;13.49;22.68;97338.73;1760988;81;21579;-58
2021/04/09 11:40:44;;;;;;;5.55;2.75;;;;;;;13.57;22.31;97336.89;1760911;80;21050;-58
2021/04/09 11:43:13;;;;;;;3.37;2.40;;;;;;;13.69;22.32;97347.75;1761106;80;21475;-58
2021/04/09 11:45:45;;;;;;;;;;;;;;;13.89;21.08;97331.97;1765122;79;22093;-55
2021/04/09 11:48:26;;;;;;;4.40;2.65;;;;;;;13.75;20.29;97329.52;1767371;80;20197;-58
2021/04/09 11:51:15;;;;;;;4.75;3.15;;;;;;;13.21;20.14;97326.30;1754441;81;21571;-58
2021/04/09 11:54:03;;;;;;;7.10;2.58;;;;;;;12.68;20.56;97321.22;1778902;79;22096;-59
2021/04/09 11:56:44;;;;;;;11.70;3.33;;;;;;;12.26;19.61;97327.03;1761123;81;21045;-58